Marham, United Kingdom
Current Conditions -  °F | °C
As of 6:50 AM on Saturday 25 Oct 2014 (Local Time) from EGYM Reporting Station
Haze Haze  
Wind Chill: 39°   Ceiling: Unl
Heat Index: 43°   Visibility: 2.7mi
Dew Point: 41°   Wind: 6mph
Humidity: 93%   Direction: 180°S
Pressure: 29.97"   Gusts: NA
Location:  52.66°N, 0.52°E
Report Text: EGYM 250550Z AUTO 18005KT 4400 BR NCD 06/05 Q1015
Loading
Personal Weather Stations






























Interactive Weather Map
Tropical Storm Tracking
New forecast layout! Learn more

10-Day Weather Forecast

Advertisements
Track Severe Weather on mobile